createdAt,value
2023-03-16T00:01:06.314Z,96903.66
2023-03-16T00:03:35.204Z,96913.06
2023-03-16T00:06:03.594Z,96979.13
2023-03-16T00:08:32.265Z,96914.06
2023-03-16T00:13:55.819Z,96977.63
2023-03-16T00:16:25.230Z,96990.75
2023-03-16T00:18:53.577Z,96962.03
2023-03-16T00:21:22.645Z,96956.13
2023-03-16T00:23:51.108Z,96952.47
2023-03-16T00:26:20.713Z,97011.75
2023-03-16T00:28:49.126Z,96967.13
2023-03-16T00:31:17.434Z,96947.03
2023-03-16T00:33:45.672Z,96960.53
2023-03-16T00:36:14.171Z,96959.94
2023-03-16T00:38:45.126Z,96956.97
2023-03-16T00:41:15.897Z,96997.59
2023-03-16T00:43:45.704Z,96997.50
2023-03-16T00:46:16.873Z,97022.56
2023-03-16T00:48:47.739Z,96964.34
2023-03-16T00:51:19.251Z,96959.94
2023-03-16T00:53:48.165Z,96993.06
2023-03-16T00:56:17.460Z,96932.78
2023-03-16T00:58:47.120Z,96967.06
2023-03-16T01:01:18.940Z,96946.16
2023-03-16T01:03:49.327Z,96981.88
2023-03-16T01:09:14.892Z,96993.50
2023-03-16T01:11:43.977Z,96922.69
2023-03-16T01:14:13.848Z,96988.19
2023-03-16T01:16:46.040Z,96922.25
2023-03-16T01:19:14.659Z,97018.28
2023-03-16T01:21:43.613Z,96953.69
2023-03-16T01:24:12.429Z,96963.50
2023-03-16T01:26:41.628Z,96989.19
2023-03-16T01:29:09.966Z,96962.13
2023-03-16T01:31:39.736Z,96964.47
2023-03-16T01:34:08.836Z,96935.84
2023-03-16T01:36:37.127Z,96958.34
2023-03-16T01:39:08.422Z,96977.09
2023-03-16T01:41:41.975Z,96937.66
2023-03-16T01:44:14.118Z,96962.13
2023-03-16T01:46:44.390Z,96978.75
2023-03-16T01:49:14.694Z,96858.94
2023-03-16T01:51:47.552Z,96924.47
2023-03-16T01:54:27.067Z,96908.56
2023-03-16T01:57:04.686Z,96974.97
2023-03-16T01:59:39.410Z,96980.72
2023-03-16T02:02:10.604Z,96959.56
2023-03-16T02:04:48.358Z,96942.97
2023-03-16T02:07:22.116Z,96942.06
2023-03-16T02:09:55.092Z,96954.50
2023-03-16T02:12:25.068Z,96977.06
2023-03-16T02:14:56.856Z,96927.81
2023-03-16T02:17:29.913Z,96925.25
2023-03-16T02:20:16.910Z,96971.78
2023-03-16T02:22:49.619Z,96967.38
2023-03-16T02:25:20.068Z,96945.25
2023-03-16T02:28:02.298Z,96925.16
2023-03-16T02:30:33.528Z,96992.84
2023-03-16T02:33:05.143Z,96932.28
2023-03-16T02:35:34.406Z,96920.16
2023-03-16T02:38:03.817Z,96945.63
2023-03-16T02:40:38.726Z,96946.31
2023-03-16T02:43:16.860Z,96930.69
2023-03-16T02:45:55.423Z,96906.69
2023-03-16T02:48:32.743Z,96926.31
2023-03-16T02:51:00.966Z,96893.56
2023-03-16T02:53:29.605Z,96911.50
2023-03-16T02:55:59.330Z,96878.03
2023-03-16T02:58:27.628Z,96909.94
2023-03-16T03:00:57.809Z,96885.69
2023-03-16T03:03:28.466Z,96926.47
2023-03-16T03:05:57.120Z,96908.41
2023-03-16T03:08:25.908Z,96937.34
2023-03-16T03:10:54.797Z,96914.47
2023-03-16T03:13:24.155Z,96871.88
2023-03-16T03:15:52.764Z,96880.84
2023-03-16T03:18:26.205Z,96865.53
2023-03-16T03:20:54.674Z,96918.84
2023-03-16T03:23:23.671Z,96917.88
2023-03-16T03:25:51.917Z,96902.13
2023-03-16T03:28:20.392Z,96927.34
2023-03-16T03:30:48.654Z,96908.41
2023-03-16T03:33:16.869Z,96929.34
2023-03-16T03:35:46.639Z,96927.78
2023-03-16T03:38:14.947Z,96939.47
2023-03-16T03:40:46.053Z,96924.00
2023-03-16T03:43:16.072Z,96903.28
2023-03-16T03:45:46.410Z,96898.25
2023-03-16T03:48:15.118Z,96919.28
2023-03-16T03:50:43.368Z,96910.59
2023-03-16T03:53:36.609Z,96930.13
2023-03-16T03:56:25.259Z,96922.22
2023-03-16T03:58:53.688Z,96901.91
2023-03-16T04:01:34.301Z,96949.09
2023-03-16T04:04:02.569Z,96892.88
2023-03-16T04:06:31.587Z,96909.41
2023-03-16T04:09:01.350Z,96851.47
2023-03-16T04:11:31.157Z,96884.16
2023-03-16T04:13:59.485Z,96893.88
2023-03-16T04:16:27.950Z,96877.44
2023-03-16T04:18:58.848Z,96984.13
2023-03-16T04:21:27.289Z,96880.06
2023-03-16T04:23:55.759Z,96906.53
2023-03-16T04:26:34.335Z,96901.44
2023-03-16T04:29:04.596Z,96949.50
2023-03-16T04:31:33.940Z,96912.81
2023-03-16T04:34:02.524Z,96866.41
2023-03-16T04:36:33.047Z,96898.63
2023-03-16T04:39:02.738Z,96867.47
2023-03-16T04:41:32.972Z,96895.66
2023-03-16T04:44:08.903Z,96901.78
2023-03-16T04:46:37.331Z,96904.31
2023-03-16T04:49:09.713Z,96833.16
2023-03-16T04:51:40.678Z,96902.03
2023-03-16T04:54:11.501Z,96888.91
2023-03-16T04:56:44.439Z,96928.69
2023-03-16T04:59:26.641Z,96889.09
2023-03-16T05:02:04.124Z,96752.34
2023-03-16T05:04:58.400Z,96873.31
2023-03-16T05:07:26.841Z,96882.53
2023-03-16T05:09:59.486Z,96881.47
2023-03-16T05:12:54.612Z,96887.16
2023-03-16T05:15:23.097Z,96873.34
2023-03-16T05:18:04.935Z,96851.03
2023-03-16T05:20:33.206Z,96746.94
2023-03-16T05:23:03.694Z,96773.47
2023-03-16T05:25:35.235Z,96854.84
2023-03-16T05:28:08.537Z,96837.88
2023-03-16T05:30:48.342Z,96861.16
2023-03-16T05:33:22.326Z,96860.34
2023-03-16T05:35:55.345Z,96882.72
2023-03-16T05:38:23.617Z,96861.56
2023-03-16T05:40:53.222Z,96851.31
2023-03-16T05:43:38.497Z,96612.84
2023-03-16T05:46:06.920Z,96843.63
2023-03-16T05:48:36.380Z,96873.63
2023-03-16T05:51:06.619Z,96857.47
2023-03-16T05:53:36.179Z,96866.63
2023-03-16T05:56:10.370Z,96843.47
2023-03-16T05:58:44.102Z,96908.97
2023-03-16T06:01:13.335Z,96759.66
2023-03-16T06:03:43.873Z,96870.44
2023-03-16T06:06:17.953Z,96823.56
2023-03-16T06:08:56.026Z,96875.91
2023-03-16T06:11:25.914Z,96848.31
2023-03-16T06:13:57.803Z,96833.19
2023-03-16T06:16:26.441Z,96837.44
2023-03-16T06:18:58.508Z,96879.38
2023-03-16T06:21:28.493Z,96861.66
2023-03-16T06:24:01.645Z,96902.31
2023-03-16T06:26:29.944Z,96846.38
2023-03-16T06:28:59.848Z,96874.81
2023-03-16T06:31:28.290Z,96878.91
2023-03-16T06:33:56.611Z,96832.50
2023-03-16T06:36:24.896Z,96863.66
2023-03-16T06:38:56.092Z,96837.16
2023-03-16T06:41:27.897Z,96860.81
2023-03-16T06:43:56.098Z,96840.00
2023-03-16T06:46:25.935Z,96856.81
2023-03-16T06:48:54.553Z,96787.50
2023-03-16T06:51:22.831Z,96799.25
2023-03-16T06:53:52.189Z,96816.16
2023-03-16T06:56:20.912Z,96858.34
2023-03-16T06:58:49.247Z,96838.31
2023-03-16T07:01:17.864Z,96879.34
2023-03-16T07:04:02.808Z,96912.53
2023-03-16T07:06:34.473Z,96886.06
2023-03-16T07:09:05.072Z,96865.78
2023-03-16T07:11:37.893Z,96814.25
2023-03-16T07:14:06.409Z,96856.56
2023-03-16T07:16:35.754Z,96871.28
2023-03-16T07:19:07.658Z,96804.84
2023-03-16T07:21:40.077Z,96817.25
2023-03-16T07:24:13.923Z,96878.44
2023-03-16T07:26:44.220Z,96857.72
2023-03-16T07:29:17.197Z,96870.19
2023-03-16T07:31:45.904Z,96842.72
2023-03-16T07:34:21.223Z,96881.25
2023-03-16T07:36:54.827Z,96964.03
2023-03-16T07:39:25.868Z,96881.88
2023-03-16T07:42:00.373Z,96874.72
2023-03-16T07:44:40.354Z,96907.66
2023-03-16T07:47:08.992Z,96946.06
2023-03-16T07:49:38.916Z,96848.13
2023-03-16T07:52:13.616Z,96922.72
2023-03-16T07:54:43.294Z,96866.50
2023-03-16T07:57:12.970Z,96900.44
2023-03-16T07:59:43.836Z,96911.78
2023-03-16T08:02:17.253Z,96898.88
2023-03-16T08:04:47.556Z,96854.59
2023-03-16T08:07:17.441Z,96862.38
2023-03-16T08:10:12.798Z,96861.00
2023-03-16T08:12:47.013Z,96898.78
2023-03-16T08:15:16.174Z,96859.53
2023-03-16T08:17:45.766Z,96841.56
2023-03-16T08:20:21.688Z,96884.13
2023-03-16T08:22:49.901Z,96859.63
2023-03-16T08:25:22.992Z,96883.44
2023-03-16T08:27:59.457Z,96842.53
2023-03-16T08:30:28.293Z,96885.88
2023-03-16T08:33:13.712Z,96883.66
2023-03-16T08:35:45.659Z,96901.59
2023-03-16T08:38:16.862Z,96864.31
2023-03-16T08:40:48.511Z,96833.22
2023-03-16T08:43:19.659Z,96873.00
2023-03-16T08:45:50.791Z,96900.25
2023-03-16T08:48:22.230Z,96868.78
2023-03-16T08:50:54.096Z,96875.50
2023-03-16T08:53:24.137Z,96931.78
2023-03-16T08:55:52.650Z,96825.69
2023-03-16T08:58:20.867Z,96908.13
2023-03-16T09:00:50.568Z,96895.66
2023-03-16T09:03:20.004Z,96900.03
2023-03-16T09:05:50.016Z,96884.66
2023-03-16T09:08:19.937Z,96853.63
2023-03-16T09:11:00.340Z,96844.63
2023-03-16T09:13:29.887Z,96867.84
2023-03-16T09:15:58.165Z,96850.53
2023-03-16T09:18:27.408Z,96891.53
2023-03-16T09:21:00.244Z,96881.56
2023-03-16T09:23:31.018Z,96870.75
2023-03-16T09:26:00.575Z,96888.88
2023-03-16T09:28:29.936Z,96873.22
2023-03-16T09:30:58.378Z,96776.50
2023-03-16T09:33:30.005Z,96897.34
2023-03-16T09:35:58.640Z,96878.63
2023-03-16T09:38:29.558Z,96833.09
2023-03-16T09:41:01.647Z,96795.69
2023-03-16T09:43:56.781Z,96800.56
2023-03-16T09:46:29.583Z,96848.47
2023-03-16T09:48:58.974Z,96859.81
2023-03-16T09:51:40.289Z,96838.41
2023-03-16T09:54:21.962Z,96861.03
2023-03-16T09:56:51.347Z,96907.94
2023-03-16T09:59:19.735Z,96819.56
2023-03-16T10:02:12.069Z,96819.88
2023-03-16T10:04:46.245Z,96836.28
2023-03-16T10:07:28.845Z,96872.63
2023-03-16T10:10:04.579Z,96798.69
2023-03-16T10:12:37.414Z,96930.00
2023-03-16T10:15:11.726Z,96842.75
2023-03-16T10:17:45.676Z,96803.53
2023-03-16T10:20:18.558Z,96832.06
2023-03-16T10:22:50.789Z,96786.81
2023-03-16T10:25:25.076Z,96824.16
2023-03-16T10:27:54.148Z,96825.34
2023-03-16T10:30:29.059Z,96788.97
2023-03-16T10:33:03.277Z,96812.88
2023-03-16T10:35:42.764Z,96798.38
2023-03-16T10:38:28.061Z,96788.69
2023-03-16T10:40:58.712Z,96799.91
2023-03-16T10:43:27.922Z,96783.09
2023-03-16T10:46:02.215Z,96825.00
2023-03-16T10:48:34.896Z,96773.16
2023-03-16T10:51:09.070Z,96678.53
2023-03-16T10:53:41.698Z,96749.16
2023-03-16T10:56:22.672Z,96756.56
2023-03-16T10:58:50.946Z,96771.56
2023-03-16T11:01:22.745Z,96799.97
2023-03-16T11:04:18.119Z,96770.72
2023-03-16T11:06:55.120Z,96745.97
2023-03-16T11:09:34.910Z,96730.03
2023-03-16T11:12:17.299Z,96760.84
2023-03-16T11:14:46.715Z,96752.28
2023-03-16T11:17:19.281Z,96792.53
2023-03-16T11:19:54.862Z,96760.19
2023-03-16T11:22:26.226Z,96732.00
2023-03-16T11:25:02.155Z,96756.34
2023-03-16T11:27:40.401Z,96740.31
2023-03-16T11:30:18.208Z,96772.56
2023-03-16T11:32:51.137Z,96766.94
2023-03-16T11:35:21.971Z,96817.88
2023-03-16T11:38:10.507Z,96755.03
2023-03-16T11:40:55.997Z,96753.13
2023-03-16T11:43:50.361Z,96694.75
2023-03-16T11:46:23.559Z,96712.75
2023-03-16T11:49:01.495Z,96696.09
2023-03-16T11:51:43.835Z,96727.72
2023-03-16T11:54:46.054Z,96714.44
2023-03-16T11:57:32.783Z,96688.75
2023-03-16T12:00:18.512Z,96705.97
2023-03-16T12:03:03.379Z,96718.84
2023-03-16T12:05:49.305Z,96713.59
2023-03-16T12:08:41.006Z,96705.50
2023-03-16T12:11:14.854Z,96743.31
2023-03-16T12:14:02.320Z,96716.56
2023-03-16T12:16:48.599Z,96711.66
2023-03-16T12:19:23.173Z,96728.53
2023-03-16T12:22:04.998Z,96681.34
2023-03-16T12:24:41.133Z,96712.47
2023-03-16T12:27:17.572Z,96732.47
2023-03-16T12:30:01.809Z,96679.03
2023-03-16T12:32:42.905Z,96714.00
2023-03-16T12:35:29.320Z,96750.31
2023-03-16T12:38:17.614Z,96706.06
2023-03-16T12:40:54.103Z,96704.88
2023-03-16T12:43:40.751Z,96661.31
2023-03-16T12:46:14.153Z,96640.44
2023-03-16T12:48:48.750Z,96689.50
2023-03-16T12:51:17.344Z,96667.28
2023-03-16T12:53:48.568Z,96668.78
2023-03-16T12:56:20.031Z,96701.69
2023-03-16T12:58:50.574Z,96651.16
2023-03-16T13:01:21.778Z,96793.94
2023-03-16T13:04:02.539Z,96611.81
2023-03-16T13:06:37.186Z,96691.78
2023-03-16T13:09:32.018Z,96647.94
2023-03-16T13:12:05.078Z,96648.91
2023-03-16T13:14:40.368Z,96609.75
2023-03-16T13:17:30.072Z,96710.09
2023-03-16T13:20:30.659Z,96613.75
2023-03-16T13:23:22.193Z,96708.44
2023-03-16T13:26:07.421Z,96648.97
2023-03-16T13:28:38.734Z,96661.19
2023-03-16T13:31:21.553Z,96667.88
2023-03-16T13:33:55.684Z,96668.94
2023-03-16T13:36:27.935Z,96682.31
2023-03-16T13:39:07.844Z,96648.53
2023-03-16T13:41:36.116Z,96672.63
2023-03-16T13:44:06.248Z,96658.50
2023-03-16T13:46:34.459Z,96636.47
2023-03-16T13:49:02.934Z,96641.91
2023-03-16T13:51:37.440Z,96654.53
2023-03-16T13:54:08.962Z,96641.81
2023-03-16T13:56:40.194Z,96631.13
2023-03-16T13:59:11.733Z,96629.31
2023-03-16T14:01:40.430Z,96641.81
2023-03-16T14:04:18.689Z,96629.69
2023-03-16T14:06:57.768Z,96528.38
2023-03-16T14:09:29.564Z,96601.44
2023-03-16T14:11:58.714Z,96622.75
2023-03-16T14:14:30.804Z,96576.63
2023-03-16T14:17:05.448Z,96602.16
2023-03-16T14:19:42.472Z,96606.28
2023-03-16T14:22:23.958Z,96637.97
2023-03-16T14:24:56.982Z,96567.00
2023-03-16T14:27:32.923Z,96619.44
2023-03-16T14:30:04.987Z,96585.53
2023-03-16T14:32:37.111Z,96561.72
2023-03-16T14:35:15.734Z,96596.84
2023-03-16T14:37:46.109Z,96574.59
2023-03-16T14:40:26.947Z,96553.94
2023-03-16T14:42:58.742Z,96580.53
2023-03-16T14:45:33.969Z,96613.75
2023-03-16T14:48:06.801Z,96541.41
2023-03-16T14:50:35.702Z,96494.09
2023-03-16T14:53:05.706Z,96573.97
2023-03-16T14:55:34.544Z,96584.56
2023-03-16T14:58:02.971Z,96596.44
2023-03-16T15:00:37.088Z,96585.81
2023-03-16T15:06:10.690Z,96548.59
2023-03-16T15:08:48.747Z,96573.19
2023-03-16T15:11:21.633Z,96543.50
2023-03-16T15:14:04.213Z,96554.59
2023-03-16T15:16:32.891Z,96555.66
2023-03-16T15:19:01.159Z,96527.16
2023-03-16T15:21:32.719Z,96569.88
2023-03-16T15:24:02.383Z,96571.56
2023-03-16T15:26:31.362Z,96588.69
2023-03-16T15:28:59.623Z,96588.84
2023-03-16T15:31:28.380Z,96546.31
2023-03-16T15:33:56.581Z,96546.31
2023-03-16T15:36:24.995Z,96563.69
2023-03-16T15:38:55.560Z,96550.91
2023-03-16T15:41:30.097Z,96566.81
2023-03-16T15:44:00.802Z,96586.47
2023-03-16T15:46:29.398Z,96569.22
2023-03-16T15:48:57.711Z,96581.22
2023-03-16T15:51:29.061Z,96575.41
2023-03-16T15:54:01.285Z,96570.53
2023-03-16T15:56:47.296Z,96536.97
2023-03-16T15:59:22.047Z,96542.31
2023-03-16T16:01:52.407Z,96583.19
2023-03-16T16:04:23.607Z,96573.78
2023-03-16T16:06:55.102Z,96567.69
2023-03-16T16:09:23.881Z,96599.94
2023-03-16T16:11:53.732Z,96601.56
2023-03-16T16:14:26.668Z,96584.63
2023-03-16T16:16:55.241Z,96591.31
2023-03-16T16:19:23.569Z,96569.91
2023-03-16T16:21:52.253Z,96529.13
2023-03-16T16:24:20.480Z,96566.13
2023-03-16T16:26:54.109Z,96560.03
2023-03-16T16:29:27.169Z,96576.97
2023-03-16T16:31:55.888Z,96602.38
2023-03-16T16:34:25.782Z,96550.09
2023-03-16T16:36:54.838Z,96547.47
2023-03-16T16:39:23.400Z,96525.44
2023-03-16T16:41:54.452Z,96517.53
2023-03-16T16:44:27.877Z,96550.06
2023-03-16T16:46:57.504Z,96542.47
2023-03-16T16:49:30.554Z,96585.53
2023-03-16T16:51:59.596Z,96561.50
2023-03-16T16:54:32.075Z,96569.38
2023-03-16T16:57:02.182Z,96543.22
2023-03-16T16:59:34.575Z,96328.09
2023-03-16T17:02:04.209Z,96529.59
2023-03-16T17:04:58.165Z,96566.00
2023-03-16T17:07:27.300Z,96532.22
2023-03-16T17:09:58.745Z,96560.81
2023-03-16T17:12:28.937Z,96573.88
2023-03-16T17:14:58.626Z,96571.06
2023-03-16T17:17:27.401Z,96526.53
2023-03-16T17:19:55.670Z,96625.16
2023-03-16T17:22:26.545Z,96549.25
2023-03-16T17:24:56.303Z,96558.66
2023-03-16T17:27:28.631Z,96525.84
2023-03-16T17:29:59.112Z,96550.28
2023-03-16T17:32:27.564Z,96525.03
2023-03-16T17:34:56.370Z,96276.19
2023-03-16T17:37:24.696Z,96558.56
2023-03-16T17:39:53.958Z,96558.03
2023-03-16T17:42:23.608Z,96560.56
2023-03-16T17:44:53.577Z,96525.34
2023-03-16T17:47:25.620Z,96558.91
2023-03-16T17:49:54.176Z,96562.44
2023-03-16T17:52:25.731Z,96522.19
2023-03-16T17:54:55.443Z,96549.25
2023-03-16T17:57:28.212Z,96513.81
2023-03-16T17:59:56.834Z,96499.63
2023-03-16T18:02:41.215Z,96476.44
2023-03-16T18:05:19.256Z,96579.31
2023-03-16T18:07:48.146Z,96520.31
2023-03-16T18:10:18.870Z,96553.50
2023-03-16T18:12:50.351Z,96594.44
2023-03-16T18:15:20.036Z,96527.78
2023-03-16T18:17:50.945Z,96590.22
2023-03-16T18:20:27.685Z,96548.94
2023-03-16T18:22:56.235Z,96546.19
2023-03-16T18:25:39.037Z,96555.69
2023-03-16T18:28:08.888Z,96517.38
2023-03-16T18:30:39.870Z,96533.00
2023-03-16T18:33:27.481Z,96572.94
2023-03-16T18:35:58.756Z,96480.66
2023-03-16T18:38:32.284Z,96507.25
2023-03-16T18:41:02.145Z,96563.00
2023-03-16T18:43:30.888Z,96546.94
2023-03-16T18:45:59.208Z,96515.00
2023-03-16T18:48:31.917Z,96548.41
2023-03-16T18:51:00.317Z,96632.81
2023-03-16T18:53:29.639Z,96498.16
2023-03-16T18:55:58.607Z,96498.97
2023-03-16T18:58:27.055Z,96486.16
2023-03-16T19:00:57.995Z,96497.81
2023-03-16T19:03:30.998Z,96492.72
2023-03-16T19:06:01.941Z,96528.13
2023-03-16T19:08:40.638Z,96568.75
2023-03-16T19:11:10.650Z,96475.19
2023-03-16T19:13:38.895Z,96425.97
2023-03-16T19:16:16.872Z,96294.19
2023-03-16T19:18:47.348Z,96475.69
2023-03-16T19:21:20.085Z,96523.59
2023-03-16T19:23:57.243Z,96456.78
2023-03-16T19:26:25.982Z,96512.03
2023-03-16T19:28:54.498Z,96498.97
2023-03-16T19:31:26.935Z,96514.53
2023-03-16T19:33:57.583Z,96504.63
2023-03-16T19:36:30.278Z,96482.38
2023-03-16T19:38:59.287Z,96527.19
2023-03-16T19:41:31.047Z,96487.31
2023-03-16T19:44:08.364Z,96506.81
2023-03-16T19:46:36.732Z,96433.75
2023-03-16T19:49:10.074Z,96511.78
2023-03-16T19:51:38.287Z,96498.44
2023-03-16T19:54:07.071Z,96480.69
2023-03-16T19:56:35.379Z,96505.47
2023-03-16T19:59:03.682Z,96504.09
2023-03-16T20:01:33.624Z,96533.25
2023-03-16T20:04:04.277Z,96502.41
2023-03-16T20:06:34.104Z,96448.97
2023-03-16T20:09:02.382Z,96485.66
2023-03-16T20:11:32.656Z,96525.00
2023-03-16T20:14:01.834Z,96499.16
2023-03-16T20:16:33.560Z,96445.50
2023-03-16T20:19:05.621Z,96464.50
2023-03-16T20:21:35.224Z,96615.28
2023-03-16T20:24:03.585Z,96493.09
2023-03-16T20:26:33.185Z,96355.41
2023-03-16T20:29:02.161Z,96491.44
2023-03-16T20:31:34.604Z,96485.00
2023-03-16T20:34:03.001Z,96471.66
2023-03-16T20:36:31.991Z,96505.88
2023-03-16T20:39:01.633Z,96503.53
2023-03-16T20:41:32.738Z,96478.00
2023-03-16T20:44:03.071Z,96381.75
2023-03-16T20:46:33.724Z,96362.69
2023-03-16T20:49:02.423Z,96499.84
2023-03-16T20:51:30.733Z,96483.31
2023-03-16T20:53:59.315Z,96397.44
2023-03-16T20:56:28.960Z,96467.94
2023-03-16T20:58:57.253Z,96447.47
2023-03-16T21:01:26.459Z,96429.56
2023-03-16T21:03:56.990Z,96492.81
2023-03-16T21:06:28.531Z,96480.88
2023-03-16T21:08:59.504Z,96377.34
2023-03-16T21:11:35.871Z,96419.00
2023-03-16T21:14:05.281Z,96451.53
2023-03-16T21:16:34.044Z,96543.97
2023-03-16T21:19:02.330Z,96415.16
2023-03-16T21:21:30.706Z,96336.50
2023-03-16T21:23:59.830Z,96499.16
2023-03-16T21:26:30.844Z,96507.41
2023-03-16T21:29:02.732Z,96463.66
2023-03-16T21:31:31.082Z,96562.19
2023-03-16T21:33:59.825Z,96528.13
2023-03-16T21:36:28.390Z,96471.25
2023-03-16T21:38:58.172Z,96448.25
2023-03-16T21:41:27.202Z,96481.56
2023-03-16T21:43:56.875Z,96482.09
2023-03-16T21:46:26.414Z,96461.31
2023-03-16T21:48:56.536Z,96368.38
2023-03-16T21:51:31.279Z,96440.56
2023-03-16T21:54:01.667Z,96484.56
2023-03-16T21:56:30.318Z,96445.38
2023-03-16T21:59:00.019Z,96463.88
2023-03-16T22:01:31.539Z,96485.09
2023-03-16T22:04:05.196Z,96517.41
2023-03-16T22:06:33.891Z,96489.91
2023-03-16T22:09:11.737Z,96454.31
2023-03-16T22:11:40.014Z,96459.50
2023-03-16T22:14:09.964Z,96441.09
2023-03-16T22:16:39.379Z,96330.63
2023-03-16T22:19:12.677Z,96439.69
2023-03-16T22:21:43.208Z,96575.84
2023-03-16T22:24:17.600Z,96417.47
2023-03-16T22:26:46.254Z,96456.59
2023-03-16T22:29:28.308Z,96422.44
2023-03-16T22:31:59.507Z,96479.00
2023-03-16T22:34:32.168Z,96464.00
2023-03-16T22:37:03.501Z,96401.28
2023-03-16T22:39:36.161Z,96402.34
2023-03-16T22:42:05.000Z,96428.69
2023-03-16T22:44:34.571Z,96454.00
2023-03-16T22:47:02.737Z,96426.00
2023-03-16T22:49:30.938Z,96437.47
2023-03-16T22:51:59.272Z,96434.19
2023-03-16T22:54:29.726Z,96461.94
2023-03-16T22:56:58.126Z,96413.31
2023-03-16T22:59:28.410Z,96456.44
2023-03-16T23:01:58.371Z,96382.28
2023-03-16T23:04:30.321Z,96447.34
2023-03-16T23:06:59.034Z,96460.94
2023-03-16T23:09:28.940Z,96410.97
2023-03-16T23:11:59.401Z,96385.00
2023-03-16T23:14:32.192Z,96404.78
2023-03-16T23:17:01.832Z,96402.44
2023-03-16T23:19:32.949Z,96399.41
2023-03-16T23:22:04.876Z,96392.72
2023-03-16T23:24:33.670Z,96381.31
2023-03-16T23:27:02.804Z,96368.78
2023-03-16T23:29:31.789Z,96428.09
2023-03-16T23:32:04.427Z,96380.34
2023-03-16T23:34:32.684Z,96402.84
2023-03-16T23:37:00.877Z,96370.88
2023-03-16T23:39:29.477Z,96434.72
2023-03-16T23:41:57.865Z,96374.84
2023-03-16T23:44:29.639Z,96408.34
2023-03-16T23:46:58.074Z,96338.06
2023-03-16T23:49:32.799Z,96369.38
2023-03-16T23:52:02.724Z,96393.81
2023-03-16T23:54:33.330Z,96392.47
2023-03-16T23:57:02.154Z,96308.44
2023-03-16T23:59:30.535Z,96403.44
